aviador You're here:

LFBG Decoded Metar

COGNAC in FRANCE
Report Time2017-09-20 16:00:00
UTC Time2017-09-20 16:29:31
Flight Rules vfr VFR
Wind090° at 03 kt
W.Decomp.*RWY 08: 2.9 kt HW 0.6 kt RCW
RWY 05: 2.3 kt HW 2.0 kt RCW
W.Rank090° ranks 27
Current wind is below 090° avg. (4.8)
Visibility9999 m
Phenomena:N/A
Clouds:N/A
Expected CloudBase > 5,200 ft AGL from Temp-Dew spread
CeilingNone
Temp21°C (ISA +6)
Dew Point08°C (43% RH)
AAT19.4°C
QNH1020 hPa
Density Alt738 ft
Elevation102 ft
Report Wrong Elevation
Raw Report
LFBG 201600Z AUTO 09003KT 060V140 CAVOK 21/08 Q1020=

Extra information for LFBG:More info

Metar Taf Metar & Taf Last 4 Metars F.Rules Stats Wind Profile Meteogram Temp Stats Airport Information Weather charts Add Link Nearby VenuesMetar ALERT Operation Metar Decoded Social comments